Higgins, Texas
Current Conditions -  °F | °C
As of 9:53 AM on Sunday 23 Nov 2014 (Local Time) from KGAG Reporting Station
Broken Clouds Broken Clouds  
Wind Chill: 41°   Ceiling: 1100
Heat Index: 48°   Visibility: 10mi
Dew Point: 44°   Wind: 21mph
Humidity: 86%   Direction: 340°NNW
Pressure: 29.46"   Gusts: 30mph
Location:  36.12°N, 100.02°W
Report Text: KGAG 231553Z AUTO 34018G26KT 10SM BKN011 09/07 A2946 RMK AO2 PK WND 33026/1549 SLP970 T00890067
Loading
Personal Weather Stations






























Interactive Weather Map New forecast layout! Learn more

10-Day Weather Forecast

Advertisements
Track Severe Weather on mobile